createdAt,value
2018-10-01T00:00:58.445Z,85.98
2018-10-01T00:03:25.753Z,84.20
2018-10-01T00:05:52.878Z,85.05
2018-10-01T00:08:20.029Z,84.78
2018-10-01T00:10:47.263Z,84.25
2018-10-01T00:13:14.455Z,84.60
2018-10-01T00:15:41.613Z,84.10
2018-10-01T00:18:08.835Z,85.09
2018-10-01T00:20:41.671Z,84.72
2018-10-01T00:23:08.830Z,84.27
2018-10-01T00:25:36.037Z,83.79
2018-10-01T00:28:03.197Z,84.09
2018-10-01T00:30:30.340Z,84.34
2018-10-01T00:32:57.549Z,83.38
2018-10-01T00:35:24.696Z,83.89
2018-10-01T00:37:52.201Z,83.42
2018-10-01T00:40:19.454Z,83.39
2018-10-01T00:42:46.638Z,83.06
2018-10-01T00:45:13.817Z,83.09
2018-10-01T00:47:41.032Z,83.58
2018-10-01T00:50:08.179Z,83.43
2018-10-01T00:52:35.364Z,83.70
2018-10-01T00:55:02.958Z,83.44
2018-10-01T00:57:30.157Z,84.72
2018-10-01T00:59:57.343Z,85.70
2018-10-01T01:02:24.507Z,85.59
2018-10-01T01:04:51.660Z,85.84
2018-10-01T01:07:18.824Z,84.96
2018-10-01T01:09:46.017Z,84.98
2018-10-01T01:12:13.180Z,84.25
2018-10-01T01:14:40.359Z,84.40
2018-10-01T01:17:07.740Z,86.25
2018-10-01T01:19:35.013Z,85.85
2018-10-01T01:22:02.166Z,84.93
2018-10-01T01:24:29.384Z,83.80
2018-10-01T01:26:56.560Z,85.16
2018-10-01T01:29:23.784Z,85.12
2018-10-01T01:31:50.968Z,85.79
2018-10-01T01:34:18.140Z,86.05
2018-10-01T01:36:45.774Z,85.36
2018-10-01T01:39:12.947Z,84.74
2018-10-01T01:41:40.153Z,84.70
2018-10-01T01:44:07.524Z,85.12
2018-10-01T01:46:34.790Z,84.55
2018-10-01T01:49:02.232Z,84.44
2018-10-01T01:51:29.401Z,83.41
2018-10-01T01:53:56.621Z,83.59
2018-10-01T01:56:23.787Z,84.58
2018-10-01T01:58:50.980Z,85.79
2018-10-01T02:01:18.177Z,87.54
2018-10-01T02:03:45.487Z,85.90
2018-10-01T02:06:12.711Z,86.90
2018-10-01T02:08:39.917Z,87.98
2018-10-01T02:11:07.080Z,87.22
2018-10-01T02:13:34.308Z,86.79
2018-10-01T02:16:01.481Z,86.07
2018-10-01T02:18:28.664Z,86.42
2018-10-01T02:20:55.839Z,85.85
2018-10-01T02:23:23.034Z,85.86
2018-10-01T02:25:50.203Z,85.05
2018-10-01T02:28:17.399Z,85.60
2018-10-01T02:30:44.597Z,85.57
2018-10-01T02:33:11.860Z,84.74
2018-10-01T02:35:39.065Z,84.56
2018-10-01T02:38:06.314Z,84.85
2018-10-01T02:40:33.604Z,84.59
2018-10-01T02:43:00.803Z,84.90
2018-10-01T02:45:27.984Z,86.59
2018-10-01T02:47:55.216Z,87.07
2018-10-01T02:50:22.344Z,87.03
2018-10-01T02:52:55.245Z,88.18
2018-10-01T02:55:22.463Z,88.60
2018-10-01T02:57:49.625Z,88.00
2018-10-01T03:00:16.850Z,87.36
2018-10-01T03:02:44.036Z,87.05
2018-10-01T03:05:11.279Z,89.18
2018-10-01T03:07:38.496Z,88.50
2018-10-01T03:10:05.752Z,87.98
2018-10-01T03:12:32.941Z,87.19
2018-10-01T03:15:00.184Z,87.16
2018-10-01T03:17:27.432Z,86.24
2018-10-01T03:19:54.589Z,87.06
2018-10-01T03:22:21.743Z,85.22
2018-10-01T03:24:48.960Z,84.98
2018-10-01T03:27:16.160Z,85.11
2018-10-01T03:29:43.368Z,85.84
2018-10-01T03:32:10.545Z,85.89
2018-10-01T03:34:37.686Z,86.24
2018-10-01T03:37:04.847Z,87.81
2018-10-01T03:39:31.998Z,88.70
2018-10-01T03:41:59.175Z,89.38
2018-10-01T03:44:26.395Z,90.53
2018-10-01T03:46:53.600Z,90.22
2018-10-01T03:49:20.792Z,90.75
2018-10-01T03:51:47.996Z,91.06
2018-10-01T03:54:15.209Z,91.50
2018-10-01T03:56:42.373Z,91.68
2018-10-01T03:59:09.575Z,92.17
2018-10-01T04:01:36.745Z,92.04
2018-10-01T04:04:04.011Z,90.83
2018-10-01T04:06:31.217Z,90.98
2018-10-01T04:08:58.589Z,90.71
2018-10-01T04:11:25.693Z,90.64
2018-10-01T04:13:52.833Z,90.23
2018-10-01T04:16:20.029Z,89.65
2018-10-01T04:18:47.224Z,92.24
2018-10-01T04:21:14.376Z,93.61
2018-10-01T04:23:41.672Z,92.20
2018-10-01T04:26:08.993Z,90.53
2018-10-01T04:28:36.181Z,89.71
2018-10-01T04:31:03.322Z,90.54
2018-10-01T04:33:30.549Z,91.22
2018-10-01T04:35:57.693Z,90.48
2018-10-01T04:38:24.901Z,89.55
2018-10-01T04:40:52.094Z,89.48
2018-10-01T04:43:19.287Z,90.95
2018-10-01T04:45:46.457Z,90.16
2018-10-01T04:48:13.666Z,89.60
2018-10-01T04:50:40.812Z,89.45
2018-10-01T04:53:07.997Z,88.58
2018-10-01T04:55:35.284Z,89.63
2018-10-01T04:58:02.474Z,91.25
2018-10-01T05:00:29.613Z,90.17
2018-10-01T05:02:56.756Z,89.18
2018-10-01T05:05:23.921Z,89.48
2018-10-01T05:07:51.080Z,89.69
2018-10-01T05:10:18.241Z,91.22
2018-10-01T05:12:45.384Z,91.71
2018-10-01T05:15:12.597Z,91.09
2018-10-01T05:17:39.748Z,92.33
2018-10-01T05:20:06.933Z,91.63
2018-10-01T05:22:34.068Z,90.61
2018-10-01T05:25:01.289Z,91.30
2018-10-01T05:27:28.497Z,91.01
2018-10-01T05:29:55.656Z,91.21
2018-10-01T05:32:22.845Z,91.20
2018-10-01T05:34:50.032Z,90.69
2018-10-01T05:37:17.195Z,92.28
2018-10-01T05:39:44.363Z,91.32
2018-10-01T05:42:11.528Z,90.83
2018-10-01T05:44:38.675Z,91.21
2018-10-01T05:47:06.028Z,90.57
2018-10-01T05:49:33.205Z,90.56
2018-10-01T05:52:00.341Z,89.21
2018-10-01T05:54:27.548Z,89.39
2018-10-01T05:56:54.684Z,88.53
2018-10-01T05:59:21.849Z,89.02
2018-10-01T06:01:49.048Z,88.57
2018-10-01T06:04:16.195Z,88.65
2018-10-01T06:06:43.376Z,89.47
2018-10-01T06:09:11.565Z,90.15
2018-10-01T06:11:38.802Z,91.00
2018-10-01T06:14:06.103Z,92.64
2018-10-01T06:16:33.273Z,90.92
2018-10-01T06:19:00.460Z,90.69
2018-10-01T06:21:27.647Z,90.53
2018-10-01T06:23:54.872Z,90.18
2018-10-01T06:26:22.024Z,91.28
2018-10-01T06:28:49.195Z,91.76
2018-10-01T06:31:16.355Z,91.95
2018-10-01T06:33:43.576Z,92.17
2018-10-01T06:36:10.783Z,91.50
2018-10-01T06:38:38.068Z,91.49
2018-10-01T06:41:05.276Z,90.62
2018-10-01T06:43:32.441Z,90.96
2018-10-01T06:45:59.643Z,91.94
2018-10-01T06:48:26.978Z,90.27
2018-10-01T06:50:54.223Z,91.26
2018-10-01T06:53:21.380Z,93.43
2018-10-01T06:55:48.525Z,92.44
2018-10-01T06:58:15.648Z,91.88
2018-10-01T07:00:42.852Z,90.71
2018-10-01T07:03:10.039Z,87.71
2018-10-01T07:05:37.216Z,86.64
2018-10-01T07:08:04.547Z,85.29
2018-10-01T07:10:31.733Z,85.65
2018-10-01T07:12:58.913Z,84.34
2018-10-01T07:15:26.095Z,84.12
2018-10-01T07:17:53.290Z,83.34
2018-10-01T07:20:20.428Z,83.08
2018-10-01T07:22:47.607Z,82.51
2018-10-01T07:25:14.736Z,81.61
2018-10-01T07:27:41.934Z,81.15
2018-10-01T07:30:09.084Z,81.05
2018-10-01T07:32:36.560Z,81.01
2018-10-01T07:35:04.149Z,80.64
2018-10-01T07:37:31.347Z,79.94
2018-10-01T07:39:58.539Z,80.33
2018-10-01T07:42:25.743Z,79.29
2018-10-01T07:44:53.007Z,79.25
2018-10-01T07:47:20.133Z,78.20
2018-10-01T07:49:47.337Z,77.98
2018-10-01T07:52:14.500Z,77.30
2018-10-01T07:54:41.672Z,77.48
2018-10-01T07:57:08.946Z,75.95
2018-10-01T07:59:36.114Z,74.91
2018-10-01T08:02:03.192Z,75.29
2018-10-01T08:04:30.369Z,75.33
2018-10-01T08:06:57.549Z,74.49
2018-10-01T08:09:24.765Z,75.63
2018-10-01T08:11:51.937Z,73.76
2018-10-01T08:14:19.114Z,73.45
2018-10-01T08:16:46.268Z,71.69
2018-10-01T08:19:13.380Z,71.70
2018-10-01T08:21:40.588Z,71.52
2018-10-01T08:24:07.809Z,71.41
2018-10-01T08:26:35.130Z,70.93
2018-10-01T08:29:02.237Z,71.31
2018-10-01T08:31:29.346Z,70.19
2018-10-01T08:33:56.521Z,70.03
2018-10-01T08:36:23.677Z,71.01
2018-10-01T08:38:50.870Z,70.54
2018-10-01T08:41:18.022Z,70.90
2018-10-01T08:43:45.217Z,69.64
2018-10-01T08:46:12.337Z,69.86
2018-10-01T08:48:43.961Z,70.10
2018-10-01T08:51:17.772Z,69.44
2018-10-01T08:53:53.537Z,69.42
2018-10-01T08:56:20.751Z,69.81
2018-10-01T08:58:47.901Z,69.77
2018-10-01T09:01:15.213Z,68.63
2018-10-01T09:03:42.427Z,68.78
2018-10-01T09:06:09.645Z,68.63
2018-10-01T09:08:36.824Z,68.45
2018-10-01T09:11:04.003Z,66.02
2018-10-01T09:13:31.155Z,65.29
2018-10-01T09:15:58.328Z,65.41
2018-10-01T09:18:25.536Z,65.77
2018-10-01T09:20:52.697Z,65.16
2018-10-01T09:23:20.053Z,65.16
2018-10-01T09:25:47.204Z,65.91
2018-10-01T09:28:14.392Z,63.24
2018-10-01T09:30:41.583Z,62.22
2018-10-01T09:33:08.745Z,63.99
2018-10-01T09:35:35.931Z,62.44
2018-10-01T09:38:03.088Z,63.12
2018-10-01T09:40:30.303Z,61.03
2018-10-01T09:42:57.492Z,60.59
2018-10-01T09:45:24.644Z,61.42
2018-10-01T09:47:51.818Z,62.13
2018-10-01T09:50:19.051Z,60.85
2018-10-01T09:52:46.171Z,61.32
2018-10-01T09:55:13.294Z,59.10
2018-10-01T09:57:40.477Z,59.24
2018-10-01T10:00:08.450Z,60.18
2018-10-01T10:02:35.649Z,59.70
2018-10-01T10:05:03.127Z,59.76
2018-10-01T10:07:30.297Z,59.25
2018-10-01T10:09:57.492Z,59.57
2018-10-01T10:12:24.604Z,59.05
2018-10-01T10:14:51.767Z,59.64
2018-10-01T10:17:18.924Z,58.79
2018-10-01T10:19:46.156Z,58.35
2018-10-01T10:22:13.370Z,58.75
2018-10-01T10:24:40.503Z,58.16
2018-10-01T10:27:07.715Z,57.77
2018-10-01T10:29:34.876Z,57.78
2018-10-01T10:32:02.163Z,57.11
2018-10-01T10:34:29.409Z,57.07
2018-10-01T10:36:56.533Z,56.77
2018-10-01T10:39:23.832Z,56.87
2018-10-01T10:41:51.092Z,55.88
2018-10-01T10:44:18.381Z,56.15
2018-10-01T10:46:45.500Z,56.29
2018-10-01T10:49:12.684Z,56.06
2018-10-01T10:51:39.876Z,56.21
2018-10-01T10:54:07.011Z,55.79
2018-10-01T10:56:34.167Z,55.51
2018-10-01T10:59:01.309Z,54.52
2018-10-01T11:01:28.483Z,55.28
2018-10-01T11:03:55.710Z,54.92
2018-10-01T11:06:22.856Z,54.44
2018-10-01T11:08:50.027Z,54.61
2018-10-01T11:11:17.167Z,54.79
2018-10-01T11:13:44.517Z,53.81
2018-10-01T11:16:11.677Z,54.51
2018-10-01T11:18:38.982Z,53.67
2018-10-01T11:21:06.798Z,52.61
2018-10-01T11:23:33.927Z,52.88
2018-10-01T11:26:01.214Z,53.19
2018-10-01T11:28:28.330Z,53.63
2018-10-01T11:30:55.454Z,52.76
2018-10-01T11:33:22.684Z,53.91
2018-10-01T11:35:49.861Z,54.73
2018-10-01T11:38:17.012Z,54.39
2018-10-01T11:40:44.196Z,55.10
2018-10-01T11:43:11.389Z,54.79
2018-10-01T11:45:38.628Z,54.72
2018-10-01T11:48:05.730Z,55.63
2018-10-01T11:50:32.882Z,56.57
2018-10-01T11:53:00.059Z,57.39
2018-10-01T11:55:27.247Z,57.45
2018-10-01T11:58:01.307Z,58.06
2018-10-01T12:00:28.572Z,57.45
2018-10-01T12:02:55.741Z,56.58
2018-10-01T12:05:22.939Z,57.56
2018-10-01T12:07:50.256Z,56.99
2018-10-01T12:10:17.488Z,57.39
2018-10-01T12:12:44.694Z,56.00
2018-10-01T12:15:11.895Z,55.93
2018-10-01T12:17:39.098Z,56.22
2018-10-01T12:20:06.500Z,57.89
2018-10-01T12:22:33.708Z,58.91
2018-10-01T12:25:00.903Z,59.88
2018-10-01T12:27:28.101Z,60.49
2018-10-01T12:29:55.157Z,60.81
2018-10-01T12:32:22.352Z,62.12
2018-10-01T12:34:49.559Z,61.99
2018-10-01T12:37:16.807Z,61.87
2018-10-01T12:39:44.095Z,62.21
2018-10-01T12:42:11.152Z,61.84
2018-10-01T12:44:38.348Z,61.79
2018-10-01T12:47:05.635Z,62.60
2018-10-01T12:49:32.848Z,62.23
2018-10-01T12:52:00.096Z,63.54
2018-10-01T12:54:27.316Z,63.81
2018-10-01T12:56:54.465Z,64.73
2018-10-01T12:59:21.732Z,64.86
2018-10-01T13:01:48.887Z,64.47
2018-10-01T13:04:16.060Z,64.97
2018-10-01T13:06:43.301Z,65.31
2018-10-01T13:09:11.775Z,65.52
2018-10-01T13:11:39.331Z,64.86
2018-10-01T13:14:06.822Z,64.87
2018-10-01T13:16:34.012Z,64.51
2018-10-01T13:19:01.172Z,64.83
2018-10-01T13:21:28.411Z,65.63
2018-10-01T13:23:55.659Z,66.71
2018-10-01T13:26:22.872Z,67.21
2018-10-01T13:28:50.065Z,67.98
2018-10-01T13:31:17.269Z,67.94
2018-10-01T13:33:44.415Z,69.05
2018-10-01T13:36:11.696Z,70.80
2018-10-01T13:38:38.784Z,70.09
2018-10-01T13:41:06.048Z,71.09
2018-10-01T13:43:33.291Z,71.62
2018-10-01T13:46:00.449Z,71.33
2018-10-01T13:48:27.647Z,71.18
2018-10-01T13:50:54.892Z,69.51
2018-10-01T13:53:22.064Z,68.31
2018-10-01T13:55:49.280Z,67.52
2018-10-01T13:58:16.573Z,66.63
2018-10-01T14:00:43.736Z,63.81
2018-10-01T14:03:10.950Z,63.00
2018-10-01T14:05:38.295Z,61.42
2018-10-01T14:08:05.457Z,61.66
2018-10-01T14:10:32.656Z,61.44
2018-10-01T14:12:59.850Z,61.07
2018-10-01T14:15:27.136Z,60.80
2018-10-01T14:17:54.358Z,59.67
2018-10-01T14:20:21.620Z,56.23
2018-10-01T14:22:48.830Z,56.16
2018-10-01T14:25:16.148Z,56.93
2018-10-01T14:27:43.967Z,55.22
2018-10-01T14:30:11.200Z,56.61
2018-10-01T14:32:38.401Z,57.27
2018-10-01T14:35:05.594Z,59.52
2018-10-01T14:37:32.952Z,60.09
2018-10-01T14:40:00.261Z,60.98
2018-10-01T14:42:27.568Z,60.83
2018-10-01T14:44:54.788Z,61.37
2018-10-01T14:47:21.988Z,61.52
2018-10-01T14:49:49.185Z,61.95
2018-10-01T14:52:16.328Z,61.57
2018-10-01T14:54:43.496Z,61.55
2018-10-01T14:57:10.676Z,61.62
2018-10-01T14:59:38.029Z,61.66
2018-10-01T15:02:05.506Z,63.00
2018-10-01T15:04:32.634Z,62.22
2018-10-01T15:06:59.800Z,62.79
2018-10-01T15:09:26.996Z,63.14
2018-10-01T15:11:54.239Z,63.21
2018-10-01T15:14:21.570Z,62.95
2018-10-01T15:16:48.789Z,63.29
2018-10-01T15:19:16.011Z,63.37
2018-10-01T15:21:43.215Z,64.35
2018-10-01T15:24:10.510Z,64.48
2018-10-01T15:26:37.787Z,64.57
2018-10-01T15:29:04.993Z,64.32
2018-10-01T15:31:32.302Z,64.32
2018-10-01T15:33:59.660Z,64.54
2018-10-01T15:36:27.000Z,64.99
2018-10-01T15:38:54.147Z,64.23
2018-10-01T15:41:21.371Z,64.57
2018-10-01T15:43:48.624Z,64.66
2018-10-01T15:46:15.837Z,65.18
2018-10-01T15:48:43.057Z,65.45
2018-10-01T15:51:10.311Z,65.49
2018-10-01T15:53:37.486Z,65.85
2018-10-01T15:56:04.962Z,66.32
2018-10-01T15:58:32.176Z,66.47
2018-10-01T16:00:59.441Z,66.68
2018-10-01T16:03:26.863Z,66.92
2018-10-01T16:05:54.101Z,69.13
2018-10-01T16:08:21.423Z,71.77
2018-10-01T16:10:48.632Z,73.98
2018-10-01T16:13:15.888Z,75.00
2018-10-01T16:15:43.116Z,79.05
2018-10-01T16:18:10.434Z,77.09
2018-10-01T16:20:37.605Z,79.59
2018-10-01T16:23:04.801Z,80.74
2018-10-01T16:25:32.018Z,82.89
2018-10-01T16:27:59.237Z,84.32
2018-10-01T16:30:26.454Z,84.53
2018-10-01T16:32:53.656Z,87.22
2018-10-01T16:35:20.894Z,89.54
2018-10-01T16:37:48.086Z,88.20
2018-10-01T16:40:15.278Z,90.04
2018-10-01T16:42:42.521Z,90.34
2018-10-01T16:45:09.754Z,90.80
2018-10-01T16:47:37.013Z,90.86
2018-10-01T16:50:04.485Z,91.50
2018-10-01T16:52:31.690Z,91.06
2018-10-01T16:54:59.053Z,90.01
2018-10-01T16:57:26.323Z,89.52
2018-10-01T16:59:53.484Z,89.64
2018-10-01T17:02:20.724Z,94.03
2018-10-01T17:04:48.105Z,95.85
2018-10-01T17:07:15.297Z,95.78
2018-10-01T17:09:42.630Z,96.40
2018-10-01T17:12:09.841Z,98.38
2018-10-01T17:14:37.027Z,95.90
2018-10-01T17:17:04.215Z,95.59
2018-10-01T17:19:31.525Z,94.66
2018-10-01T17:21:58.656Z,94.83
2018-10-01T17:24:25.804Z,96.14
2018-10-01T17:26:53.039Z,97.56
2018-10-01T17:29:20.197Z,98.46
2018-10-01T17:31:47.527Z,98.91
2018-10-01T17:34:14.763Z,100.00
2018-10-01T17:36:41.937Z,99.25
2018-10-01T17:39:09.839Z,98.34
2018-10-01T17:41:37.092Z,98.01
2018-10-01T17:44:04.312Z,97.90
2018-10-01T17:46:31.457Z,94.09
2018-10-01T17:48:58.684Z,92.57
2018-10-01T17:51:25.936Z,94.71
2018-10-01T17:53:53.098Z,96.26
2018-10-01T17:56:20.301Z,96.97
2018-10-01T17:58:47.433Z,97.26
2018-10-01T18:01:14.596Z,96.99
2018-10-01T18:03:41.778Z,96.09
2018-10-01T18:06:08.976Z,95.62
2018-10-01T18:08:36.267Z,95.77
2018-10-01T18:11:03.574Z,96.75
2018-10-01T18:13:31.026Z,96.85
2018-10-01T18:15:58.347Z,98.06
2018-10-01T18:18:25.692Z,97.38
2018-10-01T18:20:52.909Z,95.86
2018-10-01T18:23:20.248Z,94.94
2018-10-01T18:25:47.529Z,95.32
2018-10-01T18:28:15.357Z,95.11
2018-10-01T18:30:42.528Z,95.06
2018-10-01T18:33:09.729Z,96.22
2018-10-01T18:35:36.997Z,95.15
2018-10-01T18:38:04.245Z,95.35
2018-10-01T18:40:31.528Z,97.21
2018-10-01T18:42:58.868Z,99.49
2018-10-01T18:45:26.099Z,99.40
2018-10-01T18:47:53.363Z,98.76
2018-10-01T18:50:20.563Z,97.48
2018-10-01T18:52:47.753Z,96.41
2018-10-01T18:55:14.978Z,95.29
2018-10-01T18:57:42.235Z,96.60
2018-10-01T19:00:10.160Z,98.36
2018-10-01T19:02:37.385Z,99.17
2018-10-01T19:18:04.842Z,100.00
2018-10-01T19:20:32.097Z,90.49
2018-10-01T19:22:59.315Z,91.41
2018-10-01T19:25:26.560Z,92.43
2018-10-01T19:27:53.716Z,93.35
2018-10-01T19:30:21.006Z,93.26
2018-10-01T19:32:48.216Z,94.04
2018-10-01T19:35:15.361Z,96.10
2018-10-01T19:37:42.556Z,97.94
2018-10-01T19:40:09.784Z,97.54
2018-10-01T19:42:36.924Z,98.32
2018-10-01T19:45:04.412Z,97.89
2018-10-01T19:47:31.578Z,99.20
2018-10-01T19:49:59.681Z,99.31
2018-10-01T19:52:26.892Z,100.00
2018-10-01T19:54:54.050Z,100.00
2018-10-01T19:57:21.374Z,100.00
2018-10-01T19:59:48.585Z,100.00
2018-10-01T20:02:15.797Z,100.00
2018-10-01T20:04:43.105Z,100.00
2018-10-01T20:07:10.345Z,99.65
2018-10-01T20:09:40.410Z,99.12
2018-10-01T20:12:07.608Z,99.52
2018-10-01T20:14:34.820Z,100.00
2018-10-01T20:17:02.124Z,98.85
2018-10-01T20:19:29.288Z,99.73
2018-10-01T20:21:56.513Z,99.78
2018-10-01T20:24:23.795Z,99.52
2018-10-01T20:26:51.137Z,98.17
2018-10-01T20:29:18.387Z,97.48
2018-10-01T20:31:45.437Z,96.41
2018-10-01T20:34:12.658Z,96.58
2018-10-01T20:36:39.782Z,95.89
2018-10-01T20:39:08.056Z,95.15
2018-10-01T20:41:35.240Z,97.04
2018-10-01T20:44:02.500Z,95.82
2018-10-01T20:46:29.607Z,95.32
2018-10-01T20:48:56.769Z,96.36
2018-10-01T20:51:23.961Z,96.57
2018-10-01T20:53:53.320Z,97.50
2018-10-01T20:56:20.530Z,97.79
2018-10-01T20:58:47.721Z,98.33
2018-10-01T21:01:14.891Z,99.31
2018-10-01T21:03:42.071Z,99.13
2018-10-01T21:06:09.243Z,99.68
2018-10-01T21:08:36.445Z,99.66
2018-10-01T21:11:03.647Z,99.38
2018-10-01T21:13:30.827Z,99.92
2018-10-01T21:15:57.992Z,99.49
2018-10-01T21:18:25.185Z,100.00
2018-10-01T21:20:52.320Z,100.00
2018-10-01T21:23:19.445Z,100.00
2018-10-01T21:25:46.592Z,100.00
2018-10-01T21:28:13.721Z,100.00
2018-10-01T21:30:40.866Z,100.00
2018-10-01T21:33:08.029Z,99.86
2018-10-01T21:35:35.193Z,99.71
2018-10-01T21:38:02.352Z,100.00
2018-10-01T21:40:29.561Z,100.00
2018-10-01T21:42:56.768Z,100.00
2018-10-01T21:45:23.943Z,100.00
2018-10-01T21:47:51.120Z,99.44
2018-10-01T21:50:18.304Z,99.47
2018-10-01T21:52:45.501Z,99.55
2018-10-01T21:55:12.753Z,99.27
2018-10-01T21:57:40.001Z,99.77
2018-10-01T22:00:08.653Z,100.00
2018-10-01T22:02:35.836Z,100.00
2018-10-01T22:05:03.873Z,100.00
2018-10-01T22:07:31.139Z,100.00
2018-10-01T22:09:58.315Z,99.47
2018-10-01T22:12:25.478Z,99.67
2018-10-01T22:14:52.619Z,100.00
2018-10-01T22:17:19.785Z,100.00
2018-10-01T22:19:47.000Z,100.00
2018-10-01T22:22:14.237Z,100.00
2018-10-01T22:24:41.446Z,100.00
2018-10-01T22:27:08.636Z,100.00
2018-10-01T22:29:35.787Z,100.00
2018-10-01T22:32:03.005Z,100.00
2018-10-01T22:34:30.184Z,100.00
2018-10-01T22:36:57.472Z,100.00
2018-10-01T22:39:24.712Z,100.00
2018-10-01T22:41:51.877Z,100.00
2018-10-01T22:44:19.021Z,100.00
2018-10-01T22:46:46.203Z,100.00
2018-10-01T22:49:13.357Z,100.00
2018-10-01T22:51:40.572Z,100.00
2018-10-01T22:54:07.724Z,100.00
2018-10-01T22:56:34.872Z,100.00
2018-10-01T22:59:02.088Z,100.00
2018-10-01T23:01:29.320Z,100.00
2018-10-01T23:03:56.459Z,100.00
2018-10-01T23:06:24.033Z,100.00
2018-10-01T23:08:51.165Z,100.00
2018-10-01T23:11:18.328Z,100.00
2018-10-01T23:13:45.495Z,100.00
2018-10-01T23:16:12.639Z,100.00
2018-10-01T23:18:39.808Z,100.00
2018-10-01T23:21:06.955Z,100.00
2018-10-01T23:23:34.116Z,100.00
2018-10-01T23:26:01.319Z,100.00
2018-10-01T23:28:28.477Z,100.00
2018-10-01T23:30:55.623Z,100.00
2018-10-01T23:33:22.803Z,100.00
2018-10-01T23:35:49.963Z,100.00
2018-10-01T23:38:17.192Z,100.00
2018-10-01T23:40:44.364Z,100.00
2018-10-01T23:43:11.563Z,100.00
2018-10-01T23:45:38.695Z,99.63
2018-10-01T23:48:06.470Z,100.00
2018-10-01T23:50:33.627Z,100.00
2018-10-01T23:53:00.864Z,98.58
2018-10-01T23:55:28.085Z,98.42
2018-10-01T23:57:55.258Z,98.04
